sensor_id;sensor_type;location;lat;lon;timestamp;temperature;humidity
71801;HTU21D;59647;55.838;37.292;2023-11-19T00:01:23;-8.87;80.11
71801;HTU21D;59647;55.838;37.292;2023-11-19T00:03:49;-8.86;80.14
71801;HTU21D;59647;55.838;37.292;2023-11-19T00:06:15;-8.90;80.02
71801;HTU21D;59647;55.838;37.292;2023-11-19T00:08:42;-8.94;79.77
71801;HTU21D;59647;55.838;37.292;2023-11-19T00:11:11;-8.97;79.85
71801;HTU21D;59647;55.838;37.292;2023-11-19T00:13:41;-8.97;79.84
71801;HTU21D;59647;55.838;37.292;2023-11-19T00:16:08;-8.94;80.06
71801;HTU21D;59647;55.838;37.292;2023-11-19T00:18:35;-8.93;80.02
71801;HTU21D;59647;55.838;37.292;2023-11-19T00:21:02;-8.96;79.98
71801;HTU21D;59647;55.838;37.292;2023-11-19T00:23:28;-9.00;79.79
71801;HTU21D;59647;55.838;37.292;2023-11-19T00:25:54;-9.02;79.68
71801;HTU21D;59647;55.838;37.292;2023-11-19T00:28:20;-9.03;79.66
71801;HTU21D;59647;55.838;37.292;2023-11-19T00:30:46;-9.07;79.73
71801;HTU21D;59647;55.838;37.292;2023-11-19T00:33:12;-9.09;79.85
71801;HTU21D;59647;55.838;37.292;2023-11-19T00:35:38;-9.11;79.85
71801;HTU21D;59647;55.838;37.292;2023-11-19T00:38:04;-9.10;79.70
71801;HTU21D;59647;55.838;37.292;2023-11-19T00:40:30;-9.12;79.85
71801;HTU21D;59647;55.838;37.292;2023-11-19T00:42:56;-9.12;80.04
71801;HTU21D;59647;55.838;37.292;2023-11-19T00:45:21;-9.11;80.14
71801;HTU21D;59647;55.838;37.292;2023-11-19T00:47:47;-9.05;80.11
71801;HTU21D;59647;55.838;37.292;2023-11-19T00:50:13;-9.04;79.92
71801;HTU21D;59647;55.838;37.292;2023-11-19T00:52:39;-9.05;79.85
71801;HTU21D;59647;55.838;37.292;2023-11-19T00:55:06;-9.07;79.85
71801;HTU21D;59647;55.838;37.292;2023-11-19T00:57:32;-9.08;79.72
71801;HTU21D;59647;55.838;37.292;2023-11-19T01:00:02;-9.08;79.78
71801;HTU21D;59647;55.838;37.292;2023-11-19T01:02:34;-9.05;79.78
71801;HTU21D;59647;55.838;37.292;2023-11-19T01:05:00;-9.07;79.69
71801;HTU21D;59647;55.838;37.292;2023-11-19T01:07:26;-9.07;79.86
71801;HTU21D;59647;55.838;37.292;2023-11-19T01:09:52;-9.05;80.14
71801;HTU21D;59647;55.838;37.292;2023-11-19T01:12:19;-9.01;80.14
71801;HTU21D;59647;55.838;37.292;2023-11-19T01:14:45;-8.97;79.98
71801;HTU21D;59647;55.838;37.292;2023-11-19T01:17:14;-9.00;79.67
71801;HTU21D;59647;55.838;37.292;2023-11-19T01:19:39;-8.99;79.94
71801;HTU21D;59647;55.838;37.292;2023-11-19T01:22:05;-9.00;79.86
71801;HTU21D;59647;55.838;37.292;2023-11-19T01:24:31;-9.01;79.91
71801;HTU21D;59647;55.838;37.292;2023-11-19T01:26:57;-8.97;80.27
71801;HTU21D;59647;55.838;37.292;2023-11-19T01:29:25;-8.95;80.30
71801;HTU21D;59647;55.838;37.292;2023-11-19T01:31:52;-8.89;80.21
71801;HTU21D;59647;55.838;37.292;2023-11-19T01:34:19;-8.84;80.01
71801;HTU21D;59647;55.838;37.292;2023-11-19T01:36:46;-8.79;80.18
71801;HTU21D;59647;55.838;37.292;2023-11-19T01:39:12;-8.69;80.69
71801;HTU21D;59647;55.838;37.292;2023-11-19T01:41:38;-8.59;80.82
71801;HTU21D;59647;55.838;37.292;2023-11-19T01:44:06;-8.46;81.30
71801;HTU21D;59647;55.838;37.292;2023-11-19T01:46:33;-8.36;81.64
71801;HTU21D;59647;55.838;37.292;2023-11-19T01:48:59;-8.24;81.58
71801;HTU21D;59647;55.838;37.292;2023-11-19T01:51:26;-8.14;82.03
71801;HTU21D;59647;55.838;37.292;2023-11-19T01:53:55;-8.01;82.36
71801;HTU21D;59647;55.838;37.292;2023-11-19T01:56:22;-7.90;82.58
71801;HTU21D;59647;55.838;37.292;2023-11-19T01:58:49;-7.83;82.94
71801;HTU21D;59647;55.838;37.292;2023-11-19T02:01:15;-7.77;82.87
71801;HTU21D;59647;55.838;37.292;2023-11-19T02:03:43;-7.69;82.49
71801;HTU21D;59647;55.838;37.292;2023-11-19T02:06:09;-7.61;82.46
71801;HTU21D;59647;55.838;37.292;2023-11-19T02:08:36;-7.53;82.64
71801;HTU21D;59647;55.838;37.292;2023-11-19T02:11:03;-7.46;82.64
71801;HTU21D;59647;55.838;37.292;2023-11-19T02:13:32;-7.39;82.61
71801;HTU21D;59647;55.838;37.292;2023-11-19T02:15:59;-7.32;82.52
71801;HTU21D;59647;55.838;37.292;2023-11-19T02:18:27;-7.25;82.73
71801;HTU21D;59647;55.838;37.292;2023-11-19T02:20:58;-7.18;83.03
71801;HTU21D;59647;55.838;37.292;2023-11-19T02:23:27;-7.11;83.21
71801;HTU21D;59647;55.838;37.292;2023-11-19T02:28:48;-6.97;83.13
71801;HTU21D;59647;55.838;37.292;2023-11-19T02:31:14;-6.92;83.06
71801;HTU21D;59647;55.838;37.292;2023-11-19T02:33:40;-6.86;82.99
71801;HTU21D;59647;55.838;37.292;2023-11-19T02:36:07;-6.78;83.08
71801;HTU21D;59647;55.838;37.292;2023-11-19T02:38:34;-6.75;83.57
71801;HTU21D;59647;55.838;37.292;2023-11-19T02:41:03;-6.66;83.45
71801;HTU21D;59647;55.838;37.292;2023-11-19T02:43:31;-6.61;83.31
71801;HTU21D;59647;55.838;37.292;2023-11-19T02:46:03;-6.55;82.94
71801;HTU21D;59647;55.838;37.292;2023-11-19T02:48:33;-6.51;83.12
71801;HTU21D;59647;55.838;37.292;2023-11-19T02:51:04;-6.46;82.94
71801;HTU21D;59647;55.838;37.292;2023-11-19T02:53:30;-6.43;82.75
71801;HTU21D;59647;55.838;37.292;2023-11-19T02:55:57;-6.36;82.55
71801;HTU21D;59647;55.838;37.292;2023-11-19T02:58:31;-6.30;82.50
71801;HTU21D;59647;55.838;37.292;2023-11-19T03:00:57;-6.31;82.43
71801;HTU21D;59647;55.838;37.292;2023-11-19T03:03:26;-6.31;82.29
71801;HTU21D;59647;55.838;37.292;2023-11-19T03:06:07;-6.30;82.08
71801;HTU21D;59647;55.838;37.292;2023-11-19T03:08:36;-6.29;82.18
71801;HTU21D;59647;55.838;37.292;2023-11-19T03:11:02;-6.30;82.13
71801;HTU21D;59647;55.838;37.292;2023-11-19T03:13:30;-6.30;82.33
71801;HTU21D;59647;55.838;37.292;2023-11-19T03:15:56;-6.29;82.46
71801;HTU21D;59647;55.838;37.292;2023-11-19T03:18:22;-6.28;82.55
71801;HTU21D;59647;55.838;37.292;2023-11-19T03:20:48;-6.27;82.28
71801;HTU21D;59647;55.838;37.292;2023-11-19T03:23:15;-6.26;82.36
71801;HTU21D;59647;55.838;37.292;2023-11-19T03:25:41;-6.24;82.65
71801;HTU21D;59647;55.838;37.292;2023-11-19T03:28:07;-6.21;82.92
71801;HTU21D;59647;55.838;37.292;2023-11-19T03:30:33;-6.20;83.39
71801;HTU21D;59647;55.838;37.292;2023-11-19T03:32:58;-6.18;83.29
71801;HTU21D;59647;55.838;37.292;2023-11-19T03:35:26;-6.18;83.10
71801;HTU21D;59647;55.838;37.292;2023-11-19T03:37:53;-6.19;83.35
71801;HTU21D;59647;55.838;37.292;2023-11-19T03:40:19;-6.21;83.27
71801;HTU21D;59647;55.838;37.292;2023-11-19T03:42:46;-6.23;83.27
71801;HTU21D;59647;55.838;37.292;2023-11-19T03:45:12;-6.28;83.26
71801;HTU21D;59647;55.838;37.292;2023-11-19T03:47:38;-6.31;83.45
71801;HTU21D;59647;55.838;37.292;2023-11-19T03:50:06;-6.31;83.35
71801;HTU21D;59647;55.838;37.292;2023-11-19T03:52:33;-6.32;83.58
71801;HTU21D;59647;55.838;37.292;2023-11-19T03:54:59;-6.34;83.19
71801;HTU21D;59647;55.838;37.292;2023-11-19T03:57:27;-6.35;82.96
71801;HTU21D;59647;55.838;37.292;2023-11-19T03:59:54;-6.41;82.69
71801;HTU21D;59647;55.838;37.292;2023-11-19T04:02:21;-6.45;82.37
71801;HTU21D;59647;55.838;37.292;2023-11-19T04:04:50;-6.45;82.22
71801;HTU21D;59647;55.838;37.292;2023-11-19T04:07:16;-6.50;81.97
71801;HTU21D;59647;55.838;37.292;2023-11-19T04:09:42;-6.53;82.07
71801;HTU21D;59647;55.838;37.292;2023-11-19T04:12:08;-6.57;81.95
71801;HTU21D;59647;55.838;37.292;2023-11-19T04:14:34;-6.60;81.94
71801;HTU21D;59647;55.838;37.292;2023-11-19T04:17:00;-6.60;82.36
71801;HTU21D;59647;55.838;37.292;2023-11-19T04:19:25;-6.57;82.45
71801;HTU21D;59647;55.838;37.292;2023-11-19T04:21:51;-6.55;82.79
71801;HTU21D;59647;55.838;37.292;2023-11-19T04:24:18;-6.53;82.84
71801;HTU21D;59647;55.838;37.292;2023-11-19T04:26:45;-6.51;82.54
71801;HTU21D;59647;55.838;37.292;2023-11-19T04:29:12;-6.46;82.48
71801;HTU21D;59647;55.838;37.292;2023-11-19T04:31:39;-6.46;82.52
71801;HTU21D;59647;55.838;37.292;2023-11-19T04:34:06;-6.47;82.75
71801;HTU21D;59647;55.838;37.292;2023-11-19T04:36:34;-6.46;83.10
71801;HTU21D;59647;55.838;37.292;2023-11-19T04:39:01;-6.43;83.10
71801;HTU21D;59647;55.838;37.292;2023-11-19T04:41:27;-6.39;83.15
71801;HTU21D;59647;55.838;37.292;2023-11-19T04:43:54;-6.38;83.29
71801;HTU21D;59647;55.838;37.292;2023-11-19T04:46:20;-6.32;83.30
71801;HTU21D;59647;55.838;37.292;2023-11-19T04:48:47;-6.28;83.34
71801;HTU21D;59647;55.838;37.292;2023-11-19T04:51:13;-6.24;83.29
71801;HTU21D;59647;55.838;37.292;2023-11-19T04:53:38;-6.22;83.14
71801;HTU21D;59647;55.838;37.292;2023-11-19T04:56:08;-6.19;83.02
71801;HTU21D;59647;55.838;37.292;2023-11-19T04:58:34;-6.17;82.97
71801;HTU21D;59647;55.838;37.292;2023-11-19T05:01:03;-6.14;83.04
71801;HTU21D;59647;55.838;37.292;2023-11-19T05:03:33;-6.09;83.06
71801;HTU21D;59647;55.838;37.292;2023-11-19T05:05:59;-6.04;83.20
71801;HTU21D;59647;55.838;37.292;2023-11-19T05:08:25;-5.99;83.45
71801;HTU21D;59647;55.838;37.292;2023-11-19T05:10:51;-5.96;83.52
71801;HTU21D;59647;55.838;37.292;2023-11-19T05:13:17;-5.90;83.49
71801;HTU21D;59647;55.838;37.292;2023-11-19T05:15:43;-5.87;83.42
71801;HTU21D;59647;55.838;37.292;2023-11-19T05:18:09;-5.85;83.51
71801;HTU21D;59647;55.838;37.292;2023-11-19T05:20:35;-5.81;83.36
71801;HTU21D;59647;55.838;37.292;2023-11-19T05:23:01;-5.77;83.21
71801;HTU21D;59647;55.838;37.292;2023-11-19T05:25:27;-5.74;83.13
71801;HTU21D;59647;55.838;37.292;2023-11-19T05:27:53;-5.70;83.19
71801;HTU21D;59647;55.838;37.292;2023-11-19T05:30:19;-5.65;83.45
71801;HTU21D;59647;55.838;37.292;2023-11-19T05:32:45;-5.62;83.60
71801;HTU21D;59647;55.838;37.292;2023-11-19T05:35:12;-5.60;83.51
71801;HTU21D;59647;55.838;37.292;2023-11-19T05:37:38;-5.56;83.21
71801;HTU21D;59647;55.838;37.292;2023-11-19T05:40:06;-5.50;83.28
71801;HTU21D;59647;55.838;37.292;2023-11-19T05:42:41;-5.46;83.18
71801;HTU21D;59647;55.838;37.292;2023-11-19T05:45:08;-5.42;83.01
71801;HTU21D;59647;55.838;37.292;2023-11-19T05:47:35;-5.38;83.22
71801;HTU21D;59647;55.838;37.292;2023-11-19T05:50:01;-5.35;83.10
71801;HTU21D;59647;55.838;37.292;2023-11-19T05:52:30;-5.31;83.00
71801;HTU21D;59647;55.838;37.292;2023-11-19T05:55:02;-5.27;82.88
71801;HTU21D;59647;55.838;37.292;2023-11-19T05:57:38;-5.19;82.63
71801;HTU21D;59647;55.838;37.292;2023-11-19T06:00:05;-5.15;82.71
71801;HTU21D;59647;55.838;37.292;2023-11-19T06:02:39;-5.11;82.68
71801;HTU21D;59647;55.838;37.292;2023-11-19T06:05:05;-5.07;82.79
71801;HTU21D;59647;55.838;37.292;2023-11-19T06:07:33;-5.10;82.71
71801;HTU21D;59647;55.838;37.292;2023-11-19T06:09:59;-5.08;82.52
71801;HTU21D;59647;55.838;37.292;2023-11-19T06:12:25;-5.04;82.41
71801;HTU21D;59647;55.838;37.292;2023-11-19T06:14:53;-4.99;82.57
71801;HTU21D;59647;55.838;37.292;2023-11-19T06:17:20;-4.93;82.78
71801;HTU21D;59647;55.838;37.292;2023-11-19T06:19:46;-4.86;82.68
71801;HTU21D;59647;55.838;37.292;2023-11-19T06:22:12;-4.84;82.59
71801;HTU21D;59647;55.838;37.292;2023-11-19T06:24:38;-4.79;82.55
71801;HTU21D;59647;55.838;37.292;2023-11-19T06:27:04;-4.73;82.52
71801;HTU21D;59647;55.838;37.292;2023-11-19T06:29:30;-4.67;82.45
71801;HTU21D;59647;55.838;37.292;2023-11-19T06:31:56;-4.60;82.58
71801;HTU21D;59647;55.838;37.292;2023-11-19T06:34:23;-4.55;82.45
71801;HTU21D;59647;55.838;37.292;2023-11-19T06:36:49;-4.52;82.43
71801;HTU21D;59647;55.838;37.292;2023-11-19T06:39:15;-4.46;82.42
71801;HTU21D;59647;55.838;37.292;2023-11-19T06:41:45;-4.38;82.49
71801;HTU21D;59647;55.838;37.292;2023-11-19T06:44:12;-4.34;82.62
71801;HTU21D;59647;55.838;37.292;2023-11-19T06:46:38;-4.26;82.35
71801;HTU21D;59647;55.838;37.292;2023-11-19T06:49:04;-4.19;82.42
71801;HTU21D;59647;55.838;37.292;2023-11-19T06:51:29;-4.12;82.47
71801;HTU21D;59647;55.838;37.292;2023-11-19T06:53:55;-4.09;82.55
71801;HTU21D;59647;55.838;37.292;2023-11-19T06:56:24;-4.01;82.57
71801;HTU21D;59647;55.838;37.292;2023-11-19T06:58:51;-3.97;82.49
71801;HTU21D;59647;55.838;37.292;2023-11-19T07:01:17;-3.89;82.79
71801;HTU21D;59647;55.838;37.292;2023-11-19T07:03:47;-3.86;82.35
71801;HTU21D;59647;55.838;37.292;2023-11-19T07:06:13;-3.84;81.36
71801;HTU21D;59647;55.838;37.292;2023-11-19T07:08:41;-3.79;81.12
71801;HTU21D;59647;55.838;37.292;2023-11-19T07:11:07;-3.71;81.07
71801;HTU21D;59647;55.838;37.292;2023-11-19T07:13:35;-3.65;81.03
71801;HTU21D;59647;55.838;37.292;2023-11-19T07:16:01;-3.64;80.91
71801;HTU21D;59647;55.838;37.292;2023-11-19T07:18:28;-3.57;80.90
71801;HTU21D;59647;55.838;37.292;2023-11-19T07:20:54;-3.55;80.92
71801;HTU21D;59647;55.838;37.292;2023-11-19T07:23:20;-3.53;80.43
71801;HTU21D;59647;55.838;37.292;2023-11-19T07:25:47;-3.52;80.35
71801;HTU21D;59647;55.838;37.292;2023-11-19T07:28:13;-3.49;80.33
71801;HTU21D;59647;55.838;37.292;2023-11-19T07:30:40;-3.45;79.80
71801;HTU21D;59647;55.838;37.292;2023-11-19T07:33:06;-3.42;79.46
71801;HTU21D;59647;55.838;37.292;2023-11-19T07:35:32;-3.38;79.10
71801;HTU21D;59647;55.838;37.292;2023-11-19T07:37:58;-3.34;79.22
71801;HTU21D;59647;55.838;37.292;2023-11-19T07:40:24;-3.27;79.29
71801;HTU21D;59647;55.838;37.292;2023-11-19T07:42:50;-3.22;79.13
71801;HTU21D;59647;55.838;37.292;2023-11-19T07:45:17;-3.16;79.06
71801;HTU21D;59647;55.838;37.292;2023-11-19T07:47:43;-3.09;79.18
71801;HTU21D;59647;55.838;37.292;2023-11-19T07:50:10;-3.02;78.94
71801;HTU21D;59647;55.838;37.292;2023-11-19T07:52:37;-2.94;78.94
71801;HTU21D;59647;55.838;37.292;2023-11-19T07:55:04;-2.88;78.61
71801;HTU21D;59647;55.838;37.292;2023-11-19T07:57:31;-2.82;78.55
71801;HTU21D;59647;55.838;37.292;2023-11-19T07:59:57;-2.78;78.33
71801;HTU21D;59647;55.838;37.292;2023-11-19T08:02:23;-2.73;78.27
71801;HTU21D;59647;55.838;37.292;2023-11-19T08:04:49;-2.67;78.40
71801;HTU21D;59647;55.838;37.292;2023-11-19T08:07:18;-2.58;78.47
71801;HTU21D;59647;55.838;37.292;2023-11-19T08:09:45;-2.51;78.30
71801;HTU21D;59647;55.838;37.292;2023-11-19T08:12:11;-2.44;78.36
71801;HTU21D;59647;55.838;37.292;2023-11-19T08:14:39;-2.37;77.15
71801;HTU21D;59647;55.838;37.292;2023-11-19T08:17:05;-2.36;76.62
71801;HTU21D;59647;55.838;37.292;2023-11-19T08:19:32;-2.35;76.89
71801;HTU21D;59647;55.838;37.292;2023-11-19T08:21:58;-2.30;77.02
71801;HTU21D;59647;55.838;37.292;2023-11-19T08:24:24;-2.22;76.71
71801;HTU21D;59647;55.838;37.292;2023-11-19T08:26:49;-2.19;76.33
71801;HTU21D;59647;55.838;37.292;2023-11-19T08:29:15;-2.12;77.22
71801;HTU21D;59647;55.838;37.292;2023-11-19T08:31:42;-2.00;77.50
71801;HTU21D;59647;55.838;37.292;2023-11-19T08:34:08;-1.94;76.74
71801;HTU21D;59647;55.838;37.292;2023-11-19T08:36:34;-1.91;76.32
71801;HTU21D;59647;55.838;37.292;2023-11-19T08:39:00;-1.87;76.36
71801;HTU21D;59647;55.838;37.292;2023-11-19T08:41:27;-1.84;76.34
71801;HTU21D;59647;55.838;37.292;2023-11-19T08:43:53;-1.85;74.37
71801;HTU21D;59647;55.838;37.292;2023-11-19T08:46:19;-1.91;73.89
71801;HTU21D;59647;55.838;37.292;2023-11-19T08:48:45;-1.90;75.18
71801;HTU21D;59647;55.838;37.292;2023-11-19T08:51:12;-1.89;75.40
71801;HTU21D;59647;55.838;37.292;2023-11-19T08:53:38;-1.90;75.04
71801;HTU21D;59647;55.838;37.292;2023-11-19T08:56:04;-1.89;75.41
71801;HTU21D;59647;55.838;37.292;2023-11-19T08:58:31;-1.86;75.34
71801;HTU21D;59647;55.838;37.292;2023-11-19T09:00:57;-1.84;75.83
71801;HTU21D;59647;55.838;37.292;2023-11-19T09:03:23;-1.86;74.29
71801;HTU21D;59647;55.838;37.292;2023-11-19T09:05:52;-1.88;74.64
71801;HTU21D;59647;55.838;37.292;2023-11-19T09:08:18;-1.91;75.24
71801;HTU21D;59647;55.838;37.292;2023-11-19T09:10:44;-1.91;74.43
71801;HTU21D;59647;55.838;37.292;2023-11-19T09:13:10;-1.90;75.14
71801;HTU21D;59647;55.838;37.292;2023-11-19T09:15:36;-1.83;75.94
71801;HTU21D;59647;55.838;37.292;2023-11-19T09:18:01;-1.78;75.48
71801;HTU21D;59647;55.838;37.292;2023-11-19T09:20:27;-1.76;75.18
71801;HTU21D;59647;55.838;37.292;2023-11-19T09:22:54;-1.74;75.25
71801;HTU21D;59647;55.838;37.292;2023-11-19T09:25:20;-1.75;74.63
71801;HTU21D;59647;55.838;37.292;2023-11-19T09:27:46;-1.79;73.68
71801;HTU21D;59647;55.838;37.292;2023-11-19T09:30:12;-1.84;73.57
71801;HTU21D;59647;55.838;37.292;2023-11-19T09:32:38;-1.80;73.90
71801;HTU21D;59647;55.838;37.292;2023-11-19T09:35:05;-1.82;72.95
71801;HTU21D;59647;55.838;37.292;2023-11-19T09:37:32;-1.79;73.32
71801;HTU21D;59647;55.838;37.292;2023-11-19T09:39:57;-1.75;72.35
71801;HTU21D;59647;55.838;37.292;2023-11-19T09:42:24;-1.87;69.81
71801;HTU21D;59647;55.838;37.292;2023-11-19T09:44:54;-1.89;71.55
71801;HTU21D;59647;55.838;37.292;2023-11-19T09:47:22;-1.91;69.31
71801;HTU21D;59647;55.838;37.292;2023-11-19T09:49:49;-1.94;69.79
71801;HTU21D;59647;55.838;37.292;2023-11-19T09:52:15;-1.97;69.40
71801;HTU21D;59647;55.838;37.292;2023-11-19T09:54:41;-1.97;68.28
71801;HTU21D;59647;55.838;37.292;2023-11-19T09:57:07;-2.05;67.14
71801;HTU21D;59647;55.838;37.292;2023-11-19T09:59:36;-2.00;69.01
71801;HTU21D;59647;55.838;37.292;2023-11-19T10:02:09;-1.97;67.70
71801;HTU21D;59647;55.838;37.292;2023-11-19T10:04:35;-1.93;68.59
71801;HTU21D;59647;55.838;37.292;2023-11-19T10:07:02;-1.89;69.47
71801;HTU21D;59647;55.838;37.292;2023-11-19T10:09:28;-1.85;70.61
71801;HTU21D;59647;55.838;37.292;2023-11-19T10:11:55;-1.78;71.10
71801;HTU21D;59647;55.838;37.292;2023-11-19T10:14:23;-1.78;69.28
71801;HTU21D;59647;55.838;37.292;2023-11-19T10:16:49;-1.79;68.91
71801;HTU21D;59647;55.838;37.292;2023-11-19T10:19:21;-1.80;68.72
71801;HTU21D;59647;55.838;37.292;2023-11-19T10:21:47;-1.84;69.34
71801;HTU21D;59647;55.838;37.292;2023-11-19T10:24:13;-1.84;70.38
71801;HTU21D;59647;55.838;37.292;2023-11-19T10:26:40;-1.79;71.62
71801;HTU21D;59647;55.838;37.292;2023-11-19T10:29:06;-1.79;70.32
71801;HTU21D;59647;55.838;37.292;2023-11-19T10:31:32;-1.84;69.61
71801;HTU21D;59647;55.838;37.292;2023-11-19T10:33:58;-1.88;67.39
71801;HTU21D;59647;55.838;37.292;2023-11-19T10:36:37;-1.92;67.41
71801;HTU21D;59647;55.838;37.292;2023-11-19T10:39:03;-1.98;68.01
71801;HTU21D;59647;55.838;37.292;2023-11-19T10:41:30;-2.00;68.09
71801;HTU21D;59647;55.838;37.292;2023-11-19T10:44:00;-2.00;68.00
71801;HTU21D;59647;55.838;37.292;2023-11-19T10:46:42;-2.00;68.40
71801;HTU21D;59647;55.838;37.292;2023-11-19T10:49:09;-2.02;68.17
71801;HTU21D;59647;55.838;37.292;2023-11-19T10:51:38;-2.07;66.16
71801;HTU21D;59647;55.838;37.292;2023-11-19T10:54:10;-2.13;67.55
71801;HTU21D;59647;55.838;37.292;2023-11-19T10:56:37;-2.14;67.91
71801;HTU21D;59647;55.838;37.292;2023-11-19T10:59:04;-2.14;67.37
71801;HTU21D;59647;55.838;37.292;2023-11-19T11:01:45;-2.12;67.16
71801;HTU21D;59647;55.838;37.292;2023-11-19T11:04:15;-2.13;66.22
71801;HTU21D;59647;55.838;37.292;2023-11-19T11:06:45;-2.14;66.14
71801;HTU21D;59647;55.838;37.292;2023-11-19T11:09:12;-2.08;66.14
71801;HTU21D;59647;55.838;37.292;2023-11-19T11:11:47;-2.05;64.59
71801;HTU21D;59647;55.838;37.292;2023-11-19T11:14:14;-2.16;62.60
71801;HTU21D;59647;55.838;37.292;2023-11-19T11:16:42;-2.16;64.72
71801;HTU21D;59647;55.838;37.292;2023-11-19T11:19:12;-2.10;67.17
71801;HTU21D;59647;55.838;37.292;2023-11-19T11:21:40;-2.04;65.33
71801;HTU21D;59647;55.838;37.292;2023-11-19T11:29:31;-1.98;66.01
71801;HTU21D;59647;55.838;37.292;2023-11-19T11:32:19;-1.97;61.86
71801;HTU21D;59647;55.838;37.292;2023-11-19T11:35:08;-1.97;64.37
71801;HTU21D;59647;55.838;37.292;2023-11-19T11:37:46;-1.88;65.83
71801;HTU21D;59647;55.838;37.292;2023-11-19T11:40:16;-1.82;63.43
71801;HTU21D;59647;55.838;37.292;2023-11-19T11:42:45;-1.94;58.45
71801;HTU21D;59647;55.838;37.292;2023-11-19T11:45:12;-2.03;62.86
71801;HTU21D;59647;55.838;37.292;2023-11-19T11:50:16;-1.92;63.63
71801;HTU21D;59647;55.838;37.292;2023-11-19T11:55:35;-1.94;63.85
71801;HTU21D;59647;55.838;37.292;2023-11-19T11:58:03;-1.92;64.76
71801;HTU21D;59647;55.838;37.292;2023-11-19T12:00:30;-1.87;66.03
71801;HTU21D;59647;55.838;37.292;2023-11-19T12:03:00;-1.86;64.79
71801;HTU21D;59647;55.838;37.292;2023-11-19T12:05:26;-1.86;65.83
71801;HTU21D;59647;55.838;37.292;2023-11-19T12:08:03;-1.89;63.53
71801;HTU21D;59647;55.838;37.292;2023-11-19T12:10:31;-1.94;65.09
71801;HTU21D;59647;55.838;37.292;2023-11-19T12:13:01;-2.00;65.77
71801;HTU21D;59647;55.838;37.292;2023-11-19T12:15:28;-2.04;63.89
71801;HTU21D;59647;55.838;37.292;2023-11-19T12:17:54;-2.09;65.88
71801;HTU21D;59647;55.838;37.292;2023-11-19T12:20:23;-2.13;66.50
71801;HTU21D;59647;55.838;37.292;2023-11-19T12:22:49;-2.23;62.08
71801;HTU21D;59647;55.838;37.292;2023-11-19T12:25:17;-2.35;62.42
71801;HTU21D;59647;55.838;37.292;2023-11-19T12:27:51;-2.43;63.98
71801;HTU21D;59647;55.838;37.292;2023-11-19T12:30:25;-2.47;64.90
71801;HTU21D;59647;55.838;37.292;2023-11-19T12:32:52;-2.48;66.17
71801;HTU21D;59647;55.838;37.292;2023-11-19T12:35:23;-2.51;64.40
71801;HTU21D;59647;55.838;37.292;2023-11-19T12:37:51;-2.62;62.94
71801;HTU21D;59647;55.838;37.292;2023-11-19T12:42:46;-2.80;63.06
71801;HTU21D;59647;55.838;37.292;2023-11-19T12:45:13;-2.82;65.24
71801;HTU21D;59647;55.838;37.292;2023-11-19T12:47:40;-2.89;64.79
71801;HTU21D;59647;55.838;37.292;2023-11-19T12:50:07;-2.90;65.89
71801;HTU21D;59647;55.838;37.292;2023-11-19T12:52:38;-2.89;66.43
71801;HTU21D;59647;55.838;37.292;2023-11-19T12:55:05;-2.93;65.26
71801;HTU21D;59647;55.838;37.292;2023-11-19T12:57:39;-3.00;65.21
71801;HTU21D;59647;55.838;37.292;2023-11-19T13:00:06;-3.07;64.69
71801;HTU21D;59647;55.838;37.292;2023-11-19T13:02:48;-3.11;65.24
71801;HTU21D;59647;55.838;37.292;2023-11-19T13:05:31;-3.11;64.81
71801;HTU21D;59647;55.838;37.292;2023-11-19T13:07:59;-3.17;65.56
71801;HTU21D;59647;55.838;37.292;2023-11-19T13:10:28;-3.17;66.78
71801;HTU21D;59647;55.838;37.292;2023-11-19T13:13:05;-3.17;66.43
71801;HTU21D;59647;55.838;37.292;2023-11-19T13:15:32;-3.23;66.49
71801;HTU21D;59647;55.838;37.292;2023-11-19T13:18:01;-3.25;66.62
71801;HTU21D;59647;55.838;37.292;2023-11-19T13:20:29;-3.31;66.04
71801;HTU21D;59647;55.838;37.292;2023-11-19T13:23:02;-3.34;65.67
71801;HTU21D;59647;55.838;37.292;2023-11-19T13:25:30;-3.39;65.75
71801;HTU21D;59647;55.838;37.292;2023-11-19T13:27:57;-3.43;66.28
71801;HTU21D;59647;55.838;37.292;2023-11-19T13:30:25;-3.47;66.85
71801;HTU21D;59647;55.838;37.292;2023-11-19T13:32:54;-3.48;67.00
71801;HTU21D;59647;55.838;37.292;2023-11-19T13:35:22;-3.53;66.81
71801;HTU21D;59647;55.838;37.292;2023-11-19T13:37:51;-3.52;67.56
71801;HTU21D;59647;55.838;37.292;2023-11-19T13:40:19;-3.52;67.70
71801;HTU21D;59647;55.838;37.292;2023-11-19T13:42:48;-3.54;67.91
71801;HTU21D;59647;55.838;37.292;2023-11-19T13:45:14;-3.58;67.91
71801;HTU21D;59647;55.838;37.292;2023-11-19T13:47:45;-3.57;68.18
71801;HTU21D;59647;55.838;37.292;2023-11-19T13:50:14;-3.61;68.51
71801;HTU21D;59647;55.838;37.292;2023-11-19T13:52:43;-3.58;68.71
71801;HTU21D;59647;55.838;37.292;2023-11-19T13:55:11;-3.60;68.65
71801;HTU21D;59647;55.838;37.292;2023-11-19T13:57:40;-3.63;68.46
71801;HTU21D;59647;55.838;37.292;2023-11-19T14:00:08;-3.65;68.61
71801;HTU21D;59647;55.838;37.292;2023-11-19T14:02:49;-3.67;68.75
71801;HTU21D;59647;55.838;37.292;2023-11-19T14:05:17;-3.67;68.68
71801;HTU21D;59647;55.838;37.292;2023-11-19T14:07:45;-3.70;68.46
71801;HTU21D;59647;55.838;37.292;2023-11-19T14:10:17;-3.70;68.84
71801;HTU21D;59647;55.838;37.292;2023-11-19T14:12:43;-3.72;68.71
71801;HTU21D;59647;55.838;37.292;2023-11-19T14:15:10;-3.74;68.82
71801;HTU21D;59647;55.838;37.292;2023-11-19T14:17:43;-3.75;68.84
71801;HTU21D;59647;55.838;37.292;2023-11-19T14:20:10;-3.75;68.44
71801;HTU21D;59647;55.838;37.292;2023-11-19T14:22:42;-3.71;68.93
71801;HTU21D;59647;55.838;37.292;2023-11-19T14:25:17;-3.69;68.50
71801;HTU21D;59647;55.838;37.292;2023-11-19T14:27:47;-3.63;69.26
71801;HTU21D;59647;55.838;37.292;2023-11-19T14:30:15;-3.61;68.57
71801;HTU21D;59647;55.838;37.292;2023-11-19T14:32:42;-3.60;69.07
71801;HTU21D;59647;55.838;37.292;2023-11-19T14:35:12;-3.53;69.65
71801;HTU21D;59647;55.838;37.292;2023-11-19T14:37:38;-3.60;67.42
71801;HTU21D;59647;55.838;37.292;2023-11-19T14:40:04;-3.61;68.20
71801;HTU21D;59647;55.838;37.292;2023-11-19T14:42:31;-3.60;68.50
71801;HTU21D;59647;55.838;37.292;2023-11-19T14:44:57;-3.57;69.06
71801;HTU21D;59647;55.838;37.292;2023-11-19T14:47:24;-3.53;69.16
71801;HTU21D;59647;55.838;37.292;2023-11-19T14:49:50;-3.49;69.42
71801;HTU21D;59647;55.838;37.292;2023-11-19T14:52:17;-3.49;69.00
71801;HTU21D;59647;55.838;37.292;2023-11-19T14:54:43;-3.47;68.83
71801;HTU21D;59647;55.838;37.292;2023-11-19T14:57:09;-3.52;67.18
71801;HTU21D;59647;55.838;37.292;2023-11-19T14:59:36;-3.53;68.01
71801;HTU21D;59647;55.838;37.292;2023-11-19T15:02:03;-3.51;68.81
71801;HTU21D;59647;55.838;37.292;2023-11-19T15:04:29;-3.46;69.23
71801;HTU21D;59647;55.838;37.292;2023-11-19T15:06:59;-3.38;69.48
71801;HTU21D;59647;55.838;37.292;2023-11-19T15:09:26;-3.34;69.71
71801;HTU21D;59647;55.838;37.292;2023-11-19T15:11:56;-3.32;69.55
71801;HTU21D;59647;55.838;37.292;2023-11-19T15:14:24;-3.35;69.15
71801;HTU21D;59647;55.838;37.292;2023-11-19T15:16:51;-3.36;68.39
71801;HTU21D;59647;55.838;37.292;2023-11-19T15:19:18;-3.39;67.97
71801;HTU21D;59647;55.838;37.292;2023-11-19T15:21:46;-3.43;67.81